Time;durP1;ratioP1;P1;durP2;ratioP2;P2;SDS_P1;SDS_P2;PMS_P1;PMS_P2;Temp;Humidity;BMP_temperature;BMP_pressure;BME280_temperature;BME280_humidity;BME280_pressure;Samples;Min_cycle;Max_cycle;Signal;HPM_P1;HPM_P2
2022/06/30 00:00:24;;;;;;;2.60;2.40;;;24.60;54.90;;;;;;5069914;27;20674;-48
2022/06/30 00:03:06;;;;;;;3.13;2.80;;;24.60;54.90;;;;;;5123010;27;20582;-47
2022/06/30 00:05:46;;;;;;;2.90;2.70;;;24.70;55.00;;;;;;5078587;27;20555;-48
2022/06/30 00:08:27;;;;;;;2.53;2.33;;;24.60;54.90;;;;;;5144018;27;20597;-47
2022/06/30 00:11:07;;;;;;;3.07;2.30;;;24.70;56.20;;;;;;5087616;27;20524;-48
2022/06/30 00:13:49;;;;;;;3.27;2.77;;;24.70;54.90;;;;;;5078917;28;21123;-48
2022/06/30 00:16:30;;;;;;;2.83;2.63;;;24.60;54.90;;;;;;5104082;27;20627;-48
2022/06/30 00:19:09;;;;;;;2.20;2.00;;;24.60;55.00;;;;;;5092435;27;21119;-48
2022/06/30 00:21:49;;;;;;;3.63;3.33;;;24.60;55.00;;;;;;5070614;27;20528;-48
2022/06/30 00:24:31;;;;;;;2.90;2.70;;;24.70;55.10;;;;;;5063201;27;21067;-49
2022/06/30 00:27:12;;;;;;;2.80;2.47;;;24.60;55.00;;;;;;5127538;27;20556;-48
2022/06/30 00:29:53;;;;;;;3.33;3.03;;;24.60;54.90;;;;;;5056288;27;20946;-47
2022/06/30 00:32:34;;;;;;;3.10;2.80;;;24.60;54.90;;;;;;5086762;27;20654;-47
2022/06/30 00:35:15;;;;;;;3.10;2.50;;;24.70;55.00;;;;;;5071039;27;20532;-47
2022/06/30 00:37:56;;;;;;;3.00;2.63;;;24.60;54.90;;;;;;5129497;27;21016;-49
2022/06/30 00:40:37;;;;;;;3.03;2.83;;;24.60;54.90;;;;;;5050023;27;20535;-48
2022/06/30 00:43:17;;;;;;;3.10;2.43;;;24.60;54.90;;;;;;5087191;27;20523;-48
2022/06/30 00:45:57;;;;;;;3.10;2.90;;;24.70;55.00;;;;;;5077691;27;20558;-48
2022/06/30 00:48:39;;;;;;;2.03;1.93;;;24.60;54.90;;;;;;5112153;27;20578;-48
2022/06/30 00:51:21;;;;;;;2.37;2.17;;;24.60;54.90;;;;;;5087656;28;20527;-47
2022/06/30 00:54:04;;;;;;;2.70;2.50;;;24.60;55.00;;;;;;5073344;28;21135;-49
2022/06/30 00:56:47;;;;;;;2.63;2.43;;;24.60;54.90;;;;;;5089291;27;20605;-48
2022/06/30 00:59:28;;;;;;;2.80;2.60;;;24.60;54.90;;;;;;5078159;28;20590;-46
2022/06/30 01:02:09;;;;;;;2.63;2.43;;;24.60;54.90;;;;;;5136863;27;20577;-48
2022/06/30 01:04:53;;;;;;;2.90;2.70;;;24.60;54.90;;;;;;5058487;27;20882;-49
2022/06/30 01:07:34;;;;;;;2.70;2.50;;;24.60;55.00;;;;;;5083688;28;22145;-48
2022/06/30 01:13:14;;;;;;;3.07;2.87;;;24.60;55.00;;;;;;5087007;27;20520;-47
2022/06/30 01:15:55;;;;;;;3.03;2.70;;;24.60;55.00;;;;;;5127838;27;21051;-48
2022/06/30 01:18:36;;;;;;;3.40;3.10;;;24.60;54.90;;;;;;5074774;27;20579;-47
2022/06/30 01:21:19;;;;;;;3.07;2.87;;;24.60;55.00;;;;;;5087707;28;20585;-49
2022/06/30 01:23:59;;;;;;;2.77;2.53;;;24.60;54.90;;;;;;5052714;27;21040;-46
2022/06/30 01:26:39;;;;;;;2.90;2.70;;;24.60;54.90;;;;;;5102305;27;20535;-48
2022/06/30 01:29:20;;;;;;;2.37;2.17;;;24.60;55.00;;;;;;5073592;28;20937;-48
2022/06/30 01:32:00;;;;;;;3.17;2.40;;;24.60;55.00;;;;;;5087960;27;20539;-49
2022/06/30 01:34:40;;;;;;;3.03;2.73;;;24.60;54.90;;;;;;5067377;27;20549;-49
2022/06/30 01:37:20;;;;;;;2.70;2.50;;;24.60;54.90;;;;;;5085198;27;20573;-49
2022/06/30 01:40:03;;;;;;;2.40;2.30;;;24.60;54.90;;;;;;5114210;27;20538;-47
2022/06/30 01:42:45;;;;;;;2.93;2.70;;;24.60;54.90;;;;;;5107061;27;20536;-48
2022/06/30 01:45:26;;;;;;;3.33;3.03;;;24.60;54.80;;;;;;5060149;27;20612;-48
2022/06/30 01:48:08;;;;;;;2.83;2.63;;;24.60;54.90;;;;;;5123619;27;20660;-48
2022/06/30 01:50:48;;;;;;;2.87;2.67;;;24.60;55.00;;;;;;5006826;27;20633;-48
2022/06/30 01:53:30;;;;;;;3.73;2.73;;;24.60;55.00;;;;;;5122848;27;20595;-48
2022/06/30 01:56:11;;;;;;;2.80;2.60;;;24.60;54.90;;;;;;5128210;27;20531;-48
2022/06/30 01:58:53;;;;;;;2.83;2.63;;;24.60;54.90;;;;;;5104063;27;21032;-47
2022/06/30 02:01:35;;;;;;;2.70;2.50;;;24.60;54.90;;;;;;5133567;27;20944;-47
2022/06/30 02:07:15;;;;;;;2.83;2.63;;;24.60;54.80;;;;;;5086787;28;20525;-48
2022/06/30 02:09:56;;;;;;;3.00;2.80;;;24.60;54.70;;;;;;5060837;28;20597;-49
2022/06/30 02:12:48;;;;;;;5.60;3.43;;;24.60;54.70;;;;;;5107979;27;20527;-47
2022/06/30 02:15:33;;;;;;;2.80;2.60;;;24.60;54.70;;;;;;5069211;27;20605;-47
2022/06/30 02:18:14;;;;;;;2.73;2.30;;;24.60;54.60;;;;;;5066953;28;20593;-48
2022/06/30 02:20:54;;;;;;;2.50;2.30;;;24.60;54.60;;;;;;5023750;28;20592;-48
2022/06/30 02:23:36;;;;;;;2.80;2.60;;;24.60;54.60;;;;;;5118386;27;20596;-48
2022/06/30 02:26:16;;;;;;;2.93;2.40;;;24.60;54.70;;;;;;5075830;27;20556;-47
2022/06/30 02:28:57;;;;;;;2.97;2.73;;;24.60;54.70;;;;;;5086035;22;20562;-47
2022/06/30 02:31:37;;;;;;;2.77;2.57;;;24.60;54.70;;;;;;5087128;28;20523;-48
2022/06/30 02:34:18;;;;;;;2.70;2.50;;;24.50;54.70;;;;;;5112545;27;20609;-49
2022/06/30 02:37:00;;;;;;;3.30;2.87;;;24.50;54.80;;;;;;5121748;27;20536;-48
2022/06/30 02:39:41;;;;;;;2.70;2.50;;;24.60;54.80;;;;;;5118224;27;20541;-48
2022/06/30 02:42:23;;;;;;;2.03;1.93;;;24.50;54.80;;;;;;5128513;27;20566;-49
2022/06/30 02:45:04;;;;;;;2.70;2.50;;;24.50;54.80;;;;;;5059641;27;20970;-48
2022/06/30 02:47:45;;;;;;;4.47;3.07;;;24.50;54.70;;;;;;5078202;27;20583;-49
2022/06/30 02:50:27;;;;;;;2.80;2.60;;;24.50;54.70;;;;;;5069716;27;20591;-49
2022/06/30 02:53:08;;;;;;;2.13;2.03;;;24.50;54.80;;;;;;5084889;28;20531;-48
2022/06/30 02:55:48;;;;;;;2.53;2.33;;;24.50;54.70;;;;;;5053225;27;20616;-48
2022/06/30 02:58:28;;;;;;;2.57;2.37;;;24.50;54.60;;;;;;5087250;28;20528;-49
2022/06/30 03:01:09;;;;;;;4.53;2.87;;;24.50;54.70;;;;;;5084200;27;21049;-48
2022/06/30 03:03:50;;;;;;;2.83;2.63;;;24.50;54.50;;;;;;5115402;27;20587;-48
2022/06/30 03:06:31;;;;;;;2.90;2.70;;;24.50;54.50;;;;;;5080092;27;20539;-48
2022/06/30 03:09:11;;;;;;;4.40;2.57;;;24.50;54.50;;;;;;5071666;27;21139;-48
2022/06/30 03:11:52;;;;;;;2.47;2.20;;;24.50;54.50;;;;;;5107493;27;20584;-48
2022/06/30 03:14:33;;;;;;;2.30;2.20;;;24.50;54.60;;;;;;5098244;27;20549;-49
2022/06/30 03:17:14;;;;;;;2.57;2.37;;;24.50;54.50;;;;;;5126173;27;20521;-47
2022/06/30 03:19:56;;;;;;;2.93;2.73;;;24.50;54.50;;;;;;5088497;27;20541;-47
2022/06/30 03:22:35;;;;;;;3.20;2.93;;;24.50;54.40;;;;;;5084774;27;20674;-50
2022/06/30 03:25:17;;;;;;;2.90;2.70;;;24.50;54.50;;;;;;5062724;27;20688;-51
2022/06/30 03:27:58;;;;;;;2.57;2.37;;;24.50;54.60;;;;;;5074053;27;20521;-47
2022/06/30 03:30:38;;;;;;;3.17;2.87;;;24.50;54.50;;;;;;5068008;27;20623;-48
2022/06/30 03:33:20;;;;;;;3.00;2.80;;;24.50;54.50;;;;;;5085553;27;21091;-47
2022/06/30 03:36:01;;;;;;;2.85;2.65;;;24.50;54.50;;;;;;5118552;27;20471;-47
2022/06/30 03:38:41;;;;;;;2.73;2.53;;;24.50;54.60;;;;;;5075565;28;20542;-67
2022/06/30 03:41:21;;;;;;;2.40;2.20;;;24.50;54.60;;;;;;5108189;27;20568;-48
2022/06/30 03:44:02;;;;;;;2.87;2.67;;;24.50;54.60;;;;;;5070832;28;20586;-49
2022/06/30 03:46:44;;;;;;;4.27;2.50;;;24.50;54.60;;;;;;5143319;27;20589;-50
2022/06/30 03:49:25;;;;;;;2.10;2.00;;;24.50;54.60;;;;;;5086388;27;20588;-47
2022/06/30 03:52:07;;;;;;;2.40;2.20;;;24.50;54.50;;;;;;5073796;27;20586;-47
2022/06/30 03:54:48;;;;;;;2.40;2.20;;;24.50;54.60;;;;;;5074933;27;20596;-49
2022/06/30 03:57:29;;;;;;;2.43;2.23;;;24.50;54.70;;;;;;5106328;27;20576;-49
2022/06/30 04:00:11;;;;;;;3.03;2.83;;;24.50;54.80;;;;;;5083024;27;20541;-48
2022/06/30 04:02:52;;;;;;;2.43;2.30;;;24.50;54.60;;;;;;5071296;28;20587;-49
2022/06/30 04:05:34;;;;;;;2.80;2.60;;;24.40;54.50;;;;;;5080996;27;20604;-49
2022/06/30 04:08:15;;;;;;;3.10;2.80;;;24.40;54.50;;;;;;5084063;27;20582;-48
2022/06/30 04:10:56;;;;;;;4.07;2.47;;;24.40;54.50;;;;;;5107518;27;20588;-48
2022/06/30 04:13:38;;;;;;;2.30;2.10;;;24.40;54.40;;;;;;5101903;27;20987;-49
2022/06/30 04:16:19;;;;;;;3.13;2.80;;;24.40;54.40;;;;;;5070757;28;20598;-48
2022/06/30 04:19:00;;;;;;;2.97;2.33;;;24.40;54.40;;;;;;5098108;27;20562;-50
2022/06/30 04:21:41;;;;;;;2.40;2.20;;;24.40;54.30;;;;;;5131810;27;20532;-47
2022/06/30 04:24:21;;;;;;;2.90;2.70;;;24.40;54.40;;;;;;5068804;27;20968;-48
2022/06/30 04:27:03;;;;;;;2.50;2.30;;;24.40;54.30;;;;;;5087330;27;20527;-49
2022/06/30 04:29:44;;;;;;;3.37;3.10;;;24.40;54.40;;;;;;5092639;27;20583;-48
2022/06/30 04:32:38;;;;;;;2.90;2.30;;;24.40;54.20;;;;;;5112300;27;20608;-50
2022/06/30 04:35:18;;;;;;;2.80;2.60;;;24.40;54.30;;;;;;5073922;27;20600;-50
2022/06/30 04:38:00;;;;;;;2.87;2.57;;;24.40;54.30;;;;;;5124966;27;20866;-47
2022/06/30 04:43:38;;;;;;;3.10;2.80;;;24.40;54.40;;;;;;5083565;28;20518;-48
2022/06/30 04:46:19;;;;;;;2.77;2.20;;;24.40;54.30;;;;;;5116030;27;20595;-49
2022/06/30 04:49:00;;;;;;;3.50;2.90;;;24.40;54.30;;;;;;5076688;27;20580;-48
2022/06/30 04:51:41;;;;;;;3.17;2.87;;;24.30;54.20;;;;;;5087122;27;20570;-47
2022/06/30 04:54:22;;;;;;;3.70;2.87;;;24.30;54.30;;;;;;5082353;27;21051;-49
2022/06/30 04:57:05;;;;;;;4.53;2.40;;;24.30;54.20;;;;;;5086353;27;20527;-47
2022/06/30 04:59:45;;;;;;;3.07;2.87;;;24.30;54.10;;;;;;5064644;27;20584;-48
2022/06/30 05:02:27;;;;;;;2.73;2.50;;;24.30;54.20;;;;;;5122338;27;20967;-48
2022/06/30 05:05:09;;;;;;;2.83;2.63;;;24.30;55.50;;;;;;5065321;27;20604;-47
2022/06/30 05:07:50;;;;;;;2.33;2.23;;;24.30;54.40;;;;;;5084140;27;20531;-47
2022/06/30 05:10:31;;;;;;;2.90;2.70;;;24.30;54.40;;;;;;5057634;27;20912;-48
2022/06/30 05:13:12;;;;;;;3.57;2.67;;;24.30;54.40;;;;;;5128453;27;21083;-47
2022/06/30 05:15:54;;;;;;;2.60;2.40;;;24.30;54.50;;;;;;5072586;27;20577;-48
2022/06/30 05:18:35;;;;;;;2.60;2.40;;;24.30;54.50;;;;;;5083693;28;20569;-47
2022/06/30 05:21:17;;;;;;;2.40;2.20;;;24.30;54.50;;;;;;5107926;27;20580;-49
2022/06/30 05:26:56;;;;;;;4.40;2.70;;;24.30;54.60;;;;;;5137480;27;1222468;-48
2022/06/30 05:29:37;;;;;;;2.80;2.60;;;24.30;54.70;;;;;;5107022;27;20527;-49
2022/06/30 05:32:18;;;;;;;2.60;2.40;;;24.30;54.90;;;;;;5072466;28;20537;-48
2022/06/30 05:34:59;;;;;;;2.60;2.40;;;24.30;54.90;;;;;;5061144;27;20537;-48
2022/06/30 05:37:40;;;;;;;3.30;2.63;;;24.30;55.20;;;;;;5084375;28;20533;-49
2022/06/30 05:40:21;;;;;;;2.93;2.57;;;24.30;55.40;;;;;;5079307;27;20606;-48
2022/06/30 05:43:02;;;;;;;2.83;2.63;;;24.40;55.40;;;;;;5088826;28;20540;-47
2022/06/30 05:45:46;;;;;;;2.60;2.40;;;24.40;55.40;;;;;;5059214;27;20637;-49
2022/06/30 05:48:27;;;;;;;3.00;2.10;;;24.30;55.40;;;;;;5124104;27;20533;-48
2022/06/30 05:51:08;;;;;;;2.90;2.70;;;24.30;55.40;;;;;;5087653;28;21030;-48
2022/06/30 05:53:48;;;;;;;2.63;2.37;;;24.30;55.30;;;;;;5110479;27;1209251;-48
2022/06/30 05:56:29;;;;;;;2.90;2.70;;;24.40;55.40;;;;;;5074201;28;20631;-50
2022/06/30 05:59:11;;;;;;;4.53;2.53;;;24.40;55.40;;;;;;5088777;27;21056;-48
2022/06/30 06:01:50;;;;;;;3.13;2.90;;;24.40;55.80;;;;;;5105459;27;20591;-48
2022/06/30 06:04:32;;;;;;;4.23;2.43;;;24.40;55.60;;;;;;5097522;27;20957;-49
2022/06/30 06:07:13;;;;;;;2.80;2.60;;;24.40;55.50;;;;;;5129091;27;20524;-51
2022/06/30 06:09:54;;;;;;;2.57;2.37;;;24.40;55.40;;;;;;5063375;28;20588;-49
2022/06/30 06:12:34;;;;;;;2.97;2.77;;;24.40;55.40;;;;;;5137042;27;20519;-51
2022/06/30 06:15:15;;;;;;;3.63;2.70;;;24.40;55.40;;;;;;5063690;27;20575;-48
2022/06/30 06:17:56;;;;;;;2.60;2.40;;;24.40;55.50;;;;;;5126824;27;20542;-67
2022/06/30 06:20:36;;;;;;;2.57;2.37;;;24.40;55.30;;;;;;5054876;27;20578;-50
2022/06/30 06:23:17;;;;;;;3.60;2.33;;;24.40;55.20;;;;;;5084753;28;20589;-48
2022/06/30 06:25:58;;;;;;;2.53;2.10;;;24.40;55.20;;;;;;5078907;28;20591;-48
2022/06/30 06:31:37;;;;;;;2.90;2.43;;;24.40;55.20;;;;;;5129096;27;20810;-47
2022/06/30 06:34:18;;;;;;;3.77;3.47;;;24.40;55.20;;;;;;5052579;28;20590;-49
2022/06/30 06:37:00;;;;;;;2.70;2.50;;;24.40;55.40;;;;;;5117499;27;20535;-50
2022/06/30 06:39:40;;;;;;;2.70;2.50;;;24.40;55.30;;;;;;5049126;27;20535;-50
2022/06/30 06:42:22;;;;;;;2.80;2.60;;;24.40;55.30;;;;;;5090164;27;20519;-48
2022/06/30 06:45:02;;;;;;;3.30;2.73;;;24.40;55.40;;;;;;5087924;27;20603;-50
2022/06/30 06:47:45;;;;;;;2.40;2.20;;;24.40;55.20;;;;;;5106954;27;20594;-51
2022/06/30 06:50:26;;;;;;;2.80;2.40;;;24.40;55.40;;;;;;5078047;27;20610;-48
2022/06/30 06:53:07;;;;;;;3.20;2.60;;;24.40;55.40;;;;;;5085496;27;20527;-48
2022/06/30 06:55:48;;;;;;;3.17;2.97;;;24.40;55.30;;;;;;5037744;27;20555;-52
2022/06/30 06:58:30;;;;;;;2.67;2.43;;;24.40;55.60;;;;;;5107699;27;20883;-48
2022/06/30 07:01:11;;;;;;;3.50;3.20;;;24.40;55.40;;;;;;5085578;27;20535;-47
2022/06/30 07:03:52;;;;;;;3.10;2.90;;;24.40;55.40;;;;;;5062293;28;20544;-49
2022/06/30 07:06:34;;;;;;;2.70;2.50;;;24.40;55.40;;;;;;5135062;27;21047;-47
2022/06/30 07:09:16;;;;;;;2.77;2.37;;;24.40;55.50;;;;;;5070821;27;20566;-48
2022/06/30 07:11:57;;;;;;;3.50;2.57;;;24.40;55.40;;;;;;5082292;27;20535;-48
2022/06/30 07:14:38;;;;;;;2.90;2.70;;;24.40;55.20;;;;;;5081236;27;20538;-48
2022/06/30 07:17:19;;;;;;;4.20;2.20;;;24.40;55.10;;;;;;5094989;27;20546;-48
2022/06/30 07:20:01;;;;;;;4.03;2.50;;;24.40;55.00;;;;;;5114097;27;20567;-49
2022/06/30 07:22:43;;;;;;;3.00;2.43;;;24.40;55.00;;;;;;5154896;27;20594;-51
2022/06/30 07:25:24;;;;;;;2.93;2.73;;;24.40;55.10;;;;;;5089694;27;20615;-48
2022/06/30 07:28:05;;;;;;;3.23;2.93;;;24.40;55.10;;;;;;5108256;27;21114;-49
2022/06/30 07:30:47;;;;;;;2.40;2.30;;;24.40;55.10;;;;;;5065082;27;20667;-49
2022/06/30 07:33:28;;;;;;;4.97;3.33;;;24.40;55.10;;;;;;5108327;27;20578;-48
2022/06/30 07:36:08;;;;;;;2.47;2.27;;;24.30;55.00;;;;;;5081985;28;20569;-48
2022/06/30 07:38:50;;;;;;;2.97;2.70;;;24.40;55.10;;;;;;5066000;27;20569;-48
2022/06/30 07:41:32;;;;;;;2.70;2.50;;;24.40;55.10;;;;;;5129192;27;20529;-49
2022/06/30 07:44:12;;;;;;;2.00;1.80;;;24.40;54.90;;;;;;5089082;27;20568;-48
2022/06/30 07:46:52;;;;;;;2.60;2.40;;;24.40;55.00;;;;;;5085257;28;20608;-48
2022/06/30 07:49:33;;;;;;;2.47;2.27;;;24.40;55.00;;;;;;5087797;27;20601;-48
2022/06/30 07:52:13;;;;;;;2.30;2.10;;;24.40;55.10;;;;;;5113785;27;20530;-51
2022/06/30 07:55:01;;;;;;;2.47;2.30;;;24.40;55.20;;;;;;5128268;27;20590;-48
2022/06/30 07:57:46;;;;;;;2.40;2.20;;;24.40;55.10;;;;;;5107290;27;20574;-48
2022/06/30 08:00:27;;;;;;;2.43;2.23;;;24.40;55.10;;;;;;5071227;27;20579;-47
2022/06/30 08:03:07;;;;;;;2.47;2.27;;;24.40;55.10;;;;;;5125176;27;20589;-48
2022/06/30 08:05:48;;;;;;;2.80;2.30;;;24.40;55.10;;;;;;5055217;27;20630;-49
2022/06/30 08:08:30;;;;;;;2.40;2.20;;;24.40;55.00;;;;;;5081004;27;20544;-46
2022/06/30 08:11:11;;;;;;;2.10;2.00;;;24.40;55.00;;;;;;5087002;28;20539;-48
2022/06/30 08:13:52;;;;;;;2.47;2.27;;;24.40;55.00;;;;;;5023112;27;20524;-49
2022/06/30 08:16:34;;;;;;;2.50;2.30;;;24.40;54.90;;;;;;5069770;28;21084;-49
2022/06/30 08:19:16;;;;;;;2.80;2.60;;;24.40;54.90;;;;;;5071748;27;21111;-47
2022/06/30 08:21:56;;;;;;;2.93;1.90;;;24.40;54.90;;;;;;5088233;28;20576;-47
2022/06/30 08:24:38;;;;;;;2.37;2.17;;;24.40;55.00;;;;;;5096026;27;20989;-47
2022/06/30 08:27:19;;;;;;;1.97;1.87;;;24.40;55.10;;;;;;5085817;28;20527;-47
2022/06/30 08:30:00;;;;;;;2.70;2.50;;;24.40;55.00;;;;;;5101705;27;1263373;-47
2022/06/30 08:32:43;;;;;;;2.37;2.17;;;24.40;55.10;;;;;;5092904;22;21025;-48
2022/06/30 08:35:23;;;;;;;2.30;2.10;;;24.40;55.20;;;;;;5062068;27;21128;-49
2022/06/30 08:38:25;;;;;;;3.23;2.50;;;24.40;55.20;;;;;;5105551;27;21144;-48
2022/06/30 08:44:03;;;;;;;4.13;2.43;;;24.40;55.20;;;;;;5092729;27;20979;-48
2022/06/30 08:46:46;;;;;;;2.47;2.30;;;24.40;55.30;;;;;;5125947;27;20533;-49
2022/06/30 08:49:26;;;;;;;2.40;2.20;;;24.40;55.30;;;;;;5104083;27;20545;-49
2022/06/30 08:52:10;;;;;;;2.43;2.30;;;24.40;55.30;;;;;;5087831;27;20645;-48
2022/06/30 08:54:51;;;;;;;2.70;2.50;;;24.40;55.40;;;;;;5062420;27;20546;-47
2022/06/30 08:57:32;;;;;;;2.40;2.13;;;24.40;55.40;;;;;;5127836;27;20895;-48
2022/06/30 09:00:15;;;;;;;2.40;2.20;;;24.40;55.40;;;;;;5092128;27;20558;-48
2022/06/30 09:02:56;;;;;;;4.73;2.00;;;24.40;55.30;;;;;;5081018;27;20532;-49
2022/06/30 09:05:38;;;;;;;3.50;2.50;;;24.40;55.20;;;;;;5053034;27;20550;-49
2022/06/30 09:08:20;;;;;;;2.77;2.57;;;24.40;55.20;;;;;;5126219;27;21063;-49
2022/06/30 09:11:04;;;;;;;2.63;2.43;;;24.50;55.30;;;;;;5088387;28;20523;-49
2022/06/30 09:13:48;;;;;;;3.33;2.47;;;24.50;55.20;;;;;;5081703;27;20579;-49
2022/06/30 09:16:30;;;;;;;2.27;2.17;;;24.40;55.00;;;;;;5069027;28;21086;-48
2022/06/30 09:19:11;;;;;;;2.57;2.30;;;24.40;55.10;;;;;;5074980;28;20680;-48
2022/06/30 09:22:08;;;;;;;2.97;2.27;;;24.50;55.30;;;;;;5106909;27;20563;-48
2022/06/30 09:24:56;;;;;;;2.50;2.30;;;24.40;55.20;;;;;;5107054;27;20564;-50
2022/06/30 09:27:39;;;;;;;5.53;2.57;;;24.50;55.40;;;;;;5107408;27;20522;-48
2022/06/30 09:30:21;;;;;;;2.50;2.10;;;24.50;55.40;;;;;;5071046;27;20585;-50
2022/06/30 09:33:10;;;;;;;2.33;2.13;;;24.50;55.40;;;;;;5131520;27;20989;-48
2022/06/30 09:35:51;;;;;;;2.80;2.60;;;24.50;55.40;;;;;;5046483;27;20960;-48
2022/06/30 09:38:38;;;;;;;2.40;2.20;;;24.50;55.40;;;;;;5080025;27;20593;-48
2022/06/30 09:41:28;;;;;;;2.73;2.13;;;24.50;55.50;;;;;;5087358;28;20546;-47
2022/06/30 09:44:22;;;;;;;4.30;2.63;;;24.50;55.50;;;;;;5070080;28;21177;-48
2022/06/30 09:47:02;;;;;;;2.50;2.30;;;24.50;55.60;;;;;;5131157;27;1327939;-48
2022/06/30 09:49:46;;;;;;;2.90;2.17;;;24.50;55.60;;;;;;5075943;27;20947;-49
2022/06/30 09:52:27;;;;;;;2.20;2.00;;;24.50;55.60;;;;;;5131356;27;20656;-49
2022/06/30 09:55:12;;;;;;;2.93;2.10;;;24.50;55.60;;;;;;5078198;27;20593;-48
2022/06/30 09:57:56;;;;;;;3.40;2.40;;;24.50;55.70;;;;;;5086958;28;21061;-47
2022/06/30 10:00:51;;;;;;;3.10;2.33;;;24.50;55.80;;;;;;5060530;28;20593;-48
2022/06/30 10:03:32;;;;;;;3.10;2.03;;;24.50;55.80;;;;;;5128145;27;20520;-48
2022/06/30 10:06:15;;;;;;;2.40;2.17;;;24.50;55.80;;;;;;5073653;27;20529;-49
2022/06/30 10:08:57;;;;;;;3.83;2.63;;;24.50;55.80;;;;;;5096451;27;20525;-49
2022/06/30 10:11:38;;;;;;;2.63;2.10;;;24.50;55.80;;;;;;5126382;27;20539;-48
2022/06/30 10:14:20;;;;;;;3.40;2.00;;;24.50;55.80;;;;;;5113486;27;20937;-49
2022/06/30 10:17:01;;;;;;;2.80;2.60;;;24.50;55.90;;;;;;5089969;27;20581;-49
2022/06/30 10:19:43;;;;;;;2.20;2.10;;;24.50;56.00;;;;;;5054635;27;20532;-49
2022/06/30 10:22:24;;;;;;;2.30;2.10;;;24.50;56.00;;;;;;5111282;27;20576;-47
2022/06/30 10:25:05;;;;;;;4.30;2.20;;;24.50;55.90;;;;;;5120149;27;20554;-47
2022/06/30 10:27:47;;;;;;;6.63;2.60;;;24.50;56.00;;;;;;5086006;28;20524;-49
2022/06/30 10:30:39;;;;;;;5.30;2.70;;;24.50;56.10;;;;;;5091068;27;20605;-48
2022/06/30 10:33:26;;;;;;;2.50;2.30;;;24.50;55.90;;;;;;5106648;27;20530;-48
2022/06/30 10:36:14;;;;;;;3.10;2.73;;;24.50;55.90;;;;;;5083421;28;20527;-49
2022/06/30 10:39:00;;;;;;;2.67;2.47;;;24.50;56.10;;;;;;5102163;27;20533;-49
2022/06/30 10:41:47;;;;;;;2.10;1.80;;;24.50;56.10;;;;;;5128326;27;20574;-48
2022/06/30 10:44:29;;;;;;;3.00;2.80;;;24.60;56.20;;;;;;5103265;27;21104;-49
2022/06/30 10:47:16;;;;;;;3.20;2.40;;;24.60;56.20;;;;;;5123698;27;20524;-49
2022/06/30 10:49:59;;;;;;;2.50;2.30;;;24.50;56.40;;;;;;4998926;28;20550;-48
2022/06/30 10:52:47;;;;;;;2.00;1.90;;;24.60;56.30;;;;;;5126162;27;20525;-49
2022/06/30 10:55:28;;;;;;;2.60;2.40;;;24.60;56.20;;;;;;5036828;27;21090;-49
2022/06/30 10:58:09;;;;;;;2.57;2.37;;;24.60;56.20;;;;;;5108590;27;20518;-49
2022/06/30 11:01:02;;;;;;;3.37;2.50;;;24.60;56.30;;;;;;5027432;27;20547;-48
2022/06/30 11:04:05;;;;;;;4.30;2.40;;;24.60;56.10;;;;;;5077469;27;20531;-49
2022/06/30 11:07:01;;;;;;;2.63;2.30;;;24.60;56.30;;;;;;5086753;28;21128;-49
2022/06/30 11:10:16;;;;;;;2.20;2.07;;;24.60;56.30;;;;;;5056842;27;20539;-70
2022/06/30 11:12:59;;;;;;;2.65;2.20;;;24.60;56.20;;;;;;5136468;27;1229486;-48
2022/06/30 11:15:57;;;;;;;3.70;2.30;;;24.60;56.30;;;;;;5031421;27;22633;-48
2022/06/30 11:18:39;;;;;;;2.80;2.53;;;24.60;56.20;;;;;;5119438;27;20533;-48
2022/06/30 11:21:20;;;;;;;2.30;2.10;;;24.60;56.20;;;;;;5144978;27;20871;-48
2022/06/30 11:24:03;;;;;;;2.80;1.73;;;24.60;56.20;;;;;;5091039;27;20596;-49
2022/06/30 11:29:45;;;;;;;2.57;2.37;;;24.70;56.20;;;;;;5077390;27;20663;-48
2022/06/30 11:32:31;;;;;;;2.77;2.23;;;24.70;56.20;;;;;;5102733;27;20583;-47
2022/06/30 11:35:12;;;;;;;2.60;2.37;;;24.70;56.20;;;;;;5060577;27;20695;-47
2022/06/30 11:37:54;;;;;;;5.10;2.83;;;24.70;55.90;;;;;;5072684;27;20670;-49
2022/06/30 11:40:36;;;;;;;4.83;2.90;;;24.70;55.60;;;;;;5083303;27;20938;-50
2022/06/30 11:43:24;;;;;;;1.90;1.80;;;24.70;55.50;;;;;;5088016;27;20549;-48
2022/06/30 11:46:07;;;;;;;2.47;2.27;;;24.70;55.60;;;;;;5087664;27;20592;-49
2022/06/30 11:48:50;;;;;;;2.63;2.17;;;24.70;55.60;;;;;;5073020;27;20601;-48
2022/06/30 11:51:32;;;;;;;2.80;2.10;;;24.70;55.70;;;;;;5149711;27;20508;-49
2022/06/30 11:54:15;;;;;;;2.63;2.43;;;24.70;55.70;;;;;;5094825;27;20530;-48
2022/06/30 11:57:00;;;;;;;2.07;1.97;;;24.70;55.60;;;;;;5107989;27;20544;-48
2022/06/30 11:59:49;;;;;;;2.40;2.20;;;24.70;55.60;;;;;;5058426;27;20532;-48
2022/06/30 12:02:32;;;;;;;3.27;2.27;;;24.70;55.60;;;;;;5085886;27;20608;-48
2022/06/30 12:05:17;;;;;;;3.20;1.93;;;24.70;55.70;;;;;;5107250;27;20620;-49
2022/06/30 12:07:58;;;;;;;2.50;2.30;;;24.70;55.60;;;;;;5126185;27;20556;-48
2022/06/30 12:10:44;;;;;;;2.50;2.30;;;24.70;56.80;;;;;;5093157;27;20532;-48
2022/06/30 12:13:25;;;;;;;2.50;2.30;;;24.80;55.80;;;;;;5088400;28;20513;-48
2022/06/30 12:16:06;;;;;;;2.50;2.30;;;24.80;55.90;;;;;;5108196;27;20841;-49
2022/06/30 12:18:46;;;;;;;2.75;2.30;;;24.80;55.70;;;;;;5122532;27;1236467;-49
2022/06/30 12:21:27;;;;;;;2.80;2.37;;;24.80;55.70;;;;;;5120510;27;20622;-47
2022/06/30 12:24:10;;;;;;;2.90;2.43;;;24.80;55.80;;;;;;5114456;27;20568;-49
2022/06/30 12:26:52;;;;;;;1.70;1.60;;;24.80;55.90;;;;;;5088006;27;21039;-49
2022/06/30 12:29:33;;;;;;;2.60;2.30;;;24.80;55.80;;;;;;5110727;27;20546;-48
2022/06/30 12:32:14;;;;;;;2.00;1.90;;;24.80;55.90;;;;;;5085310;28;20585;-49
2022/06/30 12:34:58;;;;;;;2.07;1.97;;;24.80;55.80;;;;;;5069374;27;20564;-50
2022/06/30 12:37:40;;;;;;;2.30;2.10;;;24.80;55.70;;;;;;5106630;27;20542;-49
2022/06/30 12:40:26;;;;;;;1.97;1.73;;;24.80;55.70;;;;;;5109390;27;20355;-49
2022/06/30 12:43:07;;;;;;;1.97;1.77;;;24.90;55.90;;;;;;5123350;27;20582;-47
2022/06/30 12:45:53;;;;;;;4.07;2.47;;;24.90;56.00;;;;;;5072112;27;20595;-48
2022/06/30 12:48:50;;;;;;;3.83;2.27;;;24.90;57.20;;;;;;5107053;27;20635;-48
2022/06/30 12:51:43;;;;;;;2.23;1.90;;;24.90;55.90;;;;;;5123750;27;20879;-49
2022/06/30 12:54:26;;;;;;;1.90;1.73;;;24.90;55.90;;;;;;5076698;27;20548;-47
2022/06/30 12:57:09;;;;;;;2.33;2.17;;;24.90;55.90;;;;;;5087946;28;20573;-48
2022/06/30 12:59:52;;;;;;;1.87;1.77;;;24.90;55.90;;;;;;5055166;28;20547;-48
2022/06/30 13:02:39;;;;;;;2.50;2.30;;;24.90;55.90;;;;;;5081595;28;20575;-71
2022/06/30 13:05:21;;;;;;;2.37;2.17;;;24.90;55.80;;;;;;5073779;27;20570;-49
2022/06/30 13:08:07;;;;;;;2.40;2.20;;;24.90;55.80;;;;;;5110519;27;20582;-48
2022/06/30 13:11:06;;;;;;;3.10;2.80;;;24.90;55.80;;;;;;5067072;27;20557;-49
2022/06/30 13:13:47;;;;;;;2.90;2.70;;;25.00;56.50;;;;;;5082820;27;20527;-48
2022/06/30 13:16:31;;;;;;;3.97;2.50;;;25.10;56.00;;;;;;5083363;28;20546;-49
2022/06/30 13:19:12;;;;;;;2.60;2.40;;;25.20;55.70;;;;;;5062316;27;20535;-49
2022/06/30 13:21:53;;;;;;;2.20;2.10;;;25.30;55.50;;;;;;5079584;27;20581;-48
2022/06/30 13:24:34;;;;;;;3.40;2.97;;;25.30;55.20;;;;;;5078261;27;21144;-48
2022/06/30 13:27:15;;;;;;;4.03;2.77;;;25.40;55.10;;;;;;5128090;27;20550;-49
2022/06/30 13:29:55;;;;;;;2.97;2.70;;;25.40;54.80;;;;;;5105023;27;21215;-48
2022/06/30 13:32:37;;;;;;;4.20;2.50;;;25.50;54.80;;;;;;5080253;28;20955;-48
2022/06/30 13:35:17;;;;;;;2.80;2.50;;;25.50;55.80;;;;;;5042389;28;20471;-48
2022/06/30 13:37:57;;;;;;;2.70;2.50;;;25.60;54.30;;;;;;5085084;28;20557;-47
2022/06/30 13:40:38;;;;;;;2.70;2.50;;;25.70;54.40;;;;;;5072988;27;20580;-48
2022/06/30 13:43:19;;;;;;;2.73;2.53;;;25.70;54.40;;;;;;5108525;27;20515;-46
2022/06/30 13:45:59;;;;;;;2.87;2.53;;;25.70;54.40;;;;;;5128749;27;20571;-47
2022/06/30 13:48:41;;;;;;;2.90;2.17;;;25.70;54.40;;;;;;5115379;27;20568;-48
2022/06/30 13:51:22;;;;;;;3.33;2.67;;;25.70;54.40;;;;;;5109354;27;20521;-48
2022/06/30 13:54:04;;;;;;;2.63;2.40;;;25.80;54.40;;;;;;5076541;28;20890;-47
2022/06/30 13:56:45;;;;;;;3.40;2.60;;;25.80;54.40;;;;;;5044090;27;20575;-47
2022/06/30 13:59:30;;;;;;;5.23;2.80;;;25.90;54.20;;;;;;5100088;27;20566;-47
2022/06/30 14:02:11;;;;;;;4.23;3.00;;;26.00;54.00;;;;;;5081896;28;21048;-48
2022/06/30 14:04:53;;;;;;;4.47;2.90;;;26.00;54.10;;;;;;5110393;27;21052;-47
2022/06/30 14:07:35;;;;;;;3.03;2.50;;;26.10;53.70;;;;;;5105510;27;20567;-45
2022/06/30 14:10:16;;;;;;;4.03;3.47;;;26.20;53.90;;;;;;5079359;27;20543;-47
2022/06/30 14:12:57;;;;;;;3.83;3.23;;;26.20;53.60;;;;;;5128978;27;20578;-47
2022/06/30 14:15:38;;;;;;;3.23;3.03;;;26.20;53.50;;;;;;5077435;27;20609;-46
2022/06/30 14:18:19;;;;;;;5.20;4.10;;;26.30;53.60;;;;;;5069184;28;20981;-47
2022/06/30 14:21:02;;;;;;;5.10;3.70;;;26.30;52.90;;;;;;5086715;28;20519;-48
2022/06/30 14:23:44;;;;;;;4.10;3.73;;;26.30;53.20;;;;;;5083220;27;20589;-47